createdAt,value
2022-11-06T00:01:09.198Z,100984.91
2022-11-06T00:03:36.235Z,100984.13
2022-11-06T00:06:34.509Z,100987.13
2022-11-06T00:09:02.961Z,100988.31
2022-11-06T00:11:30.177Z,100998.84
2022-11-06T00:13:57.268Z,100999.38
2022-11-06T00:16:24.379Z,101006.44
2022-11-06T00:18:50.863Z,100997.03
2022-11-06T00:21:19.899Z,100993.72
2022-11-06T00:23:47.146Z,101003.22
2022-11-06T00:26:16.529Z,101000.63
2022-11-06T00:28:43.801Z,101003.97
2022-11-06T00:31:13.408Z,101001.09
2022-11-06T00:33:40.419Z,100991.56
2022-11-06T00:36:08.972Z,100981.47
2022-11-06T00:38:35.599Z,100986.69
2022-11-06T00:41:04.244Z,100990.22
2022-11-06T00:43:30.902Z,100986.81
2022-11-06T00:46:04.224Z,100982.81
2022-11-06T00:48:30.767Z,100988.66
2022-11-06T00:51:03.065Z,100986.09
2022-11-06T00:53:29.571Z,100991.81
2022-11-06T00:56:03.076Z,100981.16
2022-11-06T00:58:29.491Z,100970.13
2022-11-06T01:00:55.898Z,100971.31
2022-11-06T01:03:22.379Z,100978.00
2022-11-06T01:05:48.778Z,100967.75
2022-11-06T01:08:15.401Z,100966.84
2022-11-06T01:10:42.013Z,100965.78
2022-11-06T01:13:08.435Z,100963.66
2022-11-06T01:15:37.074Z,100961.09
2022-11-06T01:18:03.634Z,100961.09
2022-11-06T01:20:30.032Z,100965.84
2022-11-06T01:22:56.475Z,100967.59
2022-11-06T01:25:22.896Z,100973.72
2022-11-06T01:27:49.290Z,100970.81
2022-11-06T01:30:15.721Z,100974.53
2022-11-06T01:32:42.269Z,100966.66
2022-11-06T01:35:08.939Z,100974.72
2022-11-06T01:37:35.456Z,100977.41
2022-11-06T01:40:02.017Z,100988.91
2022-11-06T01:42:28.453Z,100989.22
2022-11-06T01:45:19.701Z,100993.53
2022-11-06T01:47:46.387Z,100998.25
2022-11-06T01:50:15.750Z,101000.63
2022-11-06T01:52:44.523Z,101006.50
2022-11-06T01:55:25.628Z,101002.78
2022-11-06T01:57:52.781Z,101006.34
2022-11-06T02:00:20.198Z,101007.81
2022-11-06T02:02:47.496Z,101002.69
2022-11-06T02:05:14.311Z,101009.88
2022-11-06T02:07:42.739Z,101005.53
2022-11-06T02:10:09.962Z,101013.72
2022-11-06T02:12:46.945Z,101011.22
2022-11-06T02:15:54.553Z,101007.25
2022-11-06T02:18:32.835Z,101008.41
2022-11-06T02:20:59.258Z,100998.97
2022-11-06T02:23:36.489Z,101001.00
2022-11-06T02:26:27.290Z,101003.13
2022-11-06T02:29:01.250Z,101008.22
2022-11-06T02:31:32.631Z,101000.81
2022-11-06T02:34:04.630Z,101002.63
2022-11-06T02:36:37.638Z,101004.44
2022-11-06T02:39:11.007Z,101002.81
2022-11-06T02:41:42.579Z,101002.22
2022-11-06T02:44:13.988Z,101001.06
2022-11-06T02:46:43.586Z,101009.22
2022-11-06T02:49:17.297Z,101005.19
2022-11-06T02:51:51.207Z,100998.50
2022-11-06T02:54:20.547Z,101009.31
2022-11-06T02:56:52.593Z,101008.66
2022-11-06T02:59:25.463Z,101001.22
2022-11-06T03:01:58.214Z,101000.66
2022-11-06T03:04:33.759Z,101003.94
2022-11-06T03:07:10.210Z,101004.59
2022-11-06T03:09:36.927Z,101001.38
2022-11-06T03:12:21.337Z,100999.66
2022-11-06T03:14:59.602Z,101002.38
2022-11-06T03:17:37.892Z,101005.91
2022-11-06T03:20:25.588Z,101014.78
2022-11-06T03:23:01.018Z,101012.28
2022-11-06T03:25:35.507Z,101016.03
2022-11-06T03:28:12.393Z,101021.22
2022-11-06T03:30:50.698Z,101021.31
2022-11-06T03:33:19.533Z,101026.41
2022-11-06T03:35:54.889Z,101022.53
2022-11-06T03:38:45.561Z,101020.84
2022-11-06T03:41:18.392Z,101017.13
2022-11-06T03:43:48.151Z,101020.69
2022-11-06T03:46:19.409Z,101028.44
2022-11-06T03:48:52.635Z,101029.09
2022-11-06T03:51:58.376Z,101026.34
2022-11-06T03:54:38.418Z,101032.94
2022-11-06T03:57:47.258Z,101033.63
2022-11-06T04:00:14.845Z,101030.31
2022-11-06T04:02:47.382Z,101021.81
2022-11-06T04:05:19.306Z,101023.03
2022-11-06T04:08:08.309Z,101023.41
2022-11-06T04:10:56.028Z,101022.81
2022-11-06T04:13:42.860Z,101021.34
2022-11-06T04:16:11.158Z,101014.25
2022-11-06T04:18:37.679Z,101011.28
2022-11-06T04:21:26.027Z,101013.00
2022-11-06T04:24:26.422Z,101012.81
2022-11-06T04:27:15.918Z,101016.44
2022-11-06T04:30:13.607Z,101026.22
2022-11-06T04:33:00.417Z,101026.63
2022-11-06T04:35:45.049Z,101021.69
2022-11-06T04:38:16.194Z,101025.88
2022-11-06T04:40:54.978Z,101023.31
2022-11-06T04:43:28.555Z,101021.97
2022-11-06T04:45:59.512Z,101018.88
2022-11-06T04:48:27.162Z,101023.31
2022-11-06T04:50:59.122Z,101028.22
2022-11-06T04:53:26.144Z,101023.69
2022-11-06T04:55:54.955Z,101032.53
2022-11-06T04:58:21.439Z,101041.81
2022-11-06T05:00:50.546Z,101038.34
2022-11-06T05:03:18.634Z,101044.56
2022-11-06T05:05:45.093Z,101051.50
2022-11-06T05:08:19.596Z,101059.38
2022-11-06T05:10:46.853Z,101062.13
2022-11-06T05:13:14.230Z,101068.16
2022-11-06T05:15:41.060Z,101065.94
2022-11-06T05:18:07.568Z,101073.47
2022-11-06T05:20:34.079Z,101080.41
2022-11-06T05:23:00.988Z,101076.88
2022-11-06T05:25:40.123Z,101076.63
2022-11-06T05:28:08.345Z,101076.44
2022-11-06T05:30:37.185Z,101078.56
2022-11-06T05:33:03.812Z,101069.31
2022-11-06T05:35:30.264Z,101077.25
2022-11-06T05:38:01.808Z,101073.78
2022-11-06T05:40:28.157Z,101076.81
2022-11-06T05:42:54.577Z,101077.72
2022-11-06T05:45:21.150Z,101077.09
2022-11-06T05:47:47.564Z,101076.97
2022-11-06T05:50:14.010Z,101082.81
2022-11-06T05:52:40.443Z,101088.84
2022-11-06T05:55:11.590Z,101090.56
2022-11-06T05:57:40.797Z,101090.06
2022-11-06T06:00:08.162Z,101086.19
2022-11-06T06:02:36.877Z,101103.47
2022-11-06T06:05:04.438Z,101100.94
2022-11-06T06:07:31.639Z,101106.22
2022-11-06T06:09:58.172Z,101109.34
2022-11-06T06:12:26.340Z,101120.66
2022-11-06T06:14:53.863Z,101138.47
2022-11-06T06:17:20.923Z,101142.09
2022-11-06T06:19:48.245Z,101149.97
2022-11-06T06:22:14.690Z,101152.44
2022-11-06T06:24:41.739Z,101156.09
2022-11-06T06:27:08.302Z,101158.44
2022-11-06T06:29:34.748Z,101152.72
2022-11-06T06:32:01.134Z,101154.75
2022-11-06T06:34:27.538Z,101159.50
2022-11-06T06:36:54.289Z,101153.66
2022-11-06T06:39:21.389Z,101162.81
2022-11-06T06:41:48.813Z,101176.50
2022-11-06T06:44:16.213Z,101172.66
2022-11-06T06:46:42.698Z,101176.28
2022-11-06T06:49:09.167Z,101179.03
2022-11-06T06:51:35.588Z,101176.47
2022-11-06T06:54:03.609Z,101170.94
2022-11-06T06:56:30.086Z,101176.88
2022-11-06T06:58:56.579Z,101176.91
2022-11-06T07:01:23.114Z,101174.91
2022-11-06T07:03:49.695Z,101180.53
2022-11-06T07:06:19.379Z,101178.91
2022-11-06T07:08:45.981Z,101173.84
2022-11-06T07:11:12.631Z,101178.53
2022-11-06T07:13:39.055Z,101188.97
2022-11-06T07:16:07.623Z,101191.22
2022-11-06T07:18:34.915Z,101193.19
2022-11-06T07:21:04.869Z,101193.47
2022-11-06T07:23:31.339Z,101201.84
2022-11-06T07:25:57.808Z,101204.41
2022-11-06T07:28:24.228Z,101214.38
2022-11-06T07:30:50.669Z,101209.91
2022-11-06T07:33:17.095Z,101209.44
2022-11-06T07:35:44.451Z,101212.94
2022-11-06T07:38:11.025Z,101206.84
2022-11-06T07:40:37.752Z,101211.50
2022-11-06T07:43:09.512Z,101211.09
2022-11-06T07:45:36.876Z,101206.81
2022-11-06T07:48:05.039Z,101203.25
2022-11-06T07:50:32.163Z,101202.69
2022-11-06T07:53:03.030Z,101204.25
2022-11-06T07:55:30.197Z,101207.50
2022-11-06T07:57:59.339Z,101210.47
2022-11-06T08:00:25.819Z,101218.41
2022-11-06T08:02:53.441Z,101203.84
2022-11-06T08:05:20.614Z,101201.53
2022-11-06T08:07:47.186Z,101200.84
2022-11-06T08:10:13.742Z,101197.88
2022-11-06T08:12:40.167Z,101198.34
2022-11-06T08:15:07.136Z,101200.47
2022-11-06T08:17:33.547Z,101206.25
2022-11-06T08:19:59.935Z,101192.59
2022-11-06T08:22:26.355Z,101204.16
2022-11-06T08:24:52.800Z,101202.97
2022-11-06T08:27:19.248Z,101205.53
2022-11-06T08:29:45.721Z,101193.53
2022-11-06T08:32:12.216Z,101190.66
2022-11-06T08:34:38.848Z,101193.88
2022-11-06T08:37:05.362Z,101191.63
2022-11-06T08:39:31.905Z,101185.63
2022-11-06T08:41:58.393Z,101184.00
2022-11-06T08:44:24.895Z,101188.72
2022-11-06T08:46:52.253Z,101190.50
2022-11-06T08:49:19.122Z,101175.41
2022-11-06T08:51:45.640Z,101177.41
2022-11-06T08:54:12.313Z,101180.78
2022-11-06T08:56:38.920Z,101193.94
2022-11-06T08:59:05.428Z,101188.81
2022-11-06T09:01:32.028Z,101183.09
2022-11-06T09:03:58.597Z,101192.91
2022-11-06T09:06:25.736Z,101187.94
2022-11-06T09:08:52.188Z,101184.00
2022-11-06T09:11:18.609Z,101190.22
2022-11-06T09:13:44.996Z,101192.19
2022-11-06T09:16:15.567Z,101191.28
2022-11-06T09:18:43.110Z,101190.84
2022-11-06T09:21:09.576Z,101187.94
2022-11-06T09:23:36.128Z,101186.16
2022-11-06T09:26:02.572Z,101184.75
2022-11-06T09:28:28.973Z,101188.09
2022-11-06T09:30:55.462Z,101186.41
2022-11-06T09:33:21.899Z,101193.03
2022-11-06T09:35:48.309Z,101184.19
2022-11-06T09:38:17.367Z,101184.72
2022-11-06T09:40:53.518Z,101184.41
2022-11-06T09:44:04.246Z,101184.84
2022-11-06T09:46:39.012Z,101181.00
2022-11-06T09:49:15.252Z,101181.22
2022-11-06T09:51:44.327Z,101184.38
2022-11-06T09:54:19.930Z,101190.50
2022-11-06T09:56:49.684Z,101195.75
2022-11-06T09:59:19.310Z,101193.75
2022-11-06T10:01:51.358Z,101194.88
2022-11-06T10:04:41.265Z,101203.25
2022-11-06T10:07:34.194Z,101198.44
2022-11-06T10:10:02.460Z,101200.66
2022-11-06T10:12:39.877Z,101200.06
2022-11-06T10:15:18.153Z,101200.91
2022-11-06T10:18:05.935Z,101203.03
2022-11-06T10:20:51.483Z,101201.25
2022-11-06T10:23:50.227Z,101199.44
2022-11-06T10:26:34.075Z,101190.75
2022-11-06T10:29:12.731Z,101202.75
2022-11-06T10:31:46.834Z,101189.47
2022-11-06T10:34:21.082Z,101191.47
2022-11-06T10:36:54.959Z,101192.00
2022-11-06T10:39:48.517Z,101190.50
2022-11-06T10:42:19.148Z,101182.53
2022-11-06T10:44:56.690Z,101173.53
2022-11-06T10:47:27.116Z,101184.59
2022-11-06T10:49:57.355Z,101182.53
2022-11-06T10:52:45.531Z,101182.91
2022-11-06T10:55:36.914Z,101176.56
2022-11-06T10:58:05.030Z,101171.94
2022-11-06T11:00:33.671Z,101173.91
2022-11-06T11:03:02.298Z,101166.81
2022-11-06T11:05:40.447Z,101163.22
2022-11-06T11:08:26.942Z,101159.22
2022-11-06T11:11:05.335Z,101165.25
2022-11-06T11:13:32.786Z,101157.25
2022-11-06T11:15:59.371Z,101154.53
2022-11-06T11:18:34.345Z,101150.78
2022-11-06T11:21:27.786Z,101145.13
2022-11-06T11:24:10.913Z,101140.09
2022-11-06T11:26:46.810Z,101139.69
2022-11-06T11:29:22.566Z,101134.00
2022-11-06T11:31:56.242Z,101137.25
2022-11-06T11:34:29.414Z,101130.78
2022-11-06T11:37:04.596Z,101129.25
2022-11-06T11:39:35.193Z,101126.25
2022-11-06T11:42:29.474Z,101123.03
2022-11-06T11:45:18.775Z,101114.63
2022-11-06T11:47:51.407Z,101104.56
2022-11-06T11:50:19.922Z,101102.00
2022-11-06T11:52:49.597Z,101101.72
2022-11-06T11:55:22.141Z,101098.34
2022-11-06T11:57:51.324Z,101092.50
2022-11-06T12:00:23.576Z,101088.28
2022-11-06T12:02:54.498Z,101083.72
2022-11-06T12:05:32.861Z,101080.75
2022-11-06T12:08:00.648Z,101075.59
2022-11-06T12:10:27.072Z,101070.19
2022-11-06T12:12:55.700Z,101063.06
2022-11-06T12:15:33.408Z,101069.41
2022-11-06T12:18:16.688Z,101054.91
2022-11-06T12:20:57.248Z,101073.41
2022-11-06T12:23:29.491Z,101066.31
2022-11-06T12:26:37.220Z,101061.16
2022-11-06T12:29:15.721Z,101058.69
2022-11-06T12:31:50.213Z,101054.28
2022-11-06T12:34:25.936Z,101057.25
2022-11-06T12:37:18.401Z,101053.88
2022-11-06T12:39:52.284Z,101058.00
2022-11-06T12:42:22.197Z,101055.41
2022-11-06T12:44:48.734Z,101050.50
2022-11-06T12:47:44.983Z,101049.22
2022-11-06T12:50:27.073Z,101041.56
2022-11-06T12:52:53.502Z,101040.50
2022-11-06T12:55:23.075Z,101033.34
2022-11-06T12:58:11.221Z,101019.50
2022-11-06T13:00:58.049Z,101027.63
2022-11-06T13:03:38.490Z,101025.44
2022-11-06T13:06:20.430Z,101013.81
2022-11-06T13:09:01.915Z,101016.53
2022-11-06T13:12:03.779Z,101007.19
2022-11-06T13:14:42.545Z,101008.72
2022-11-06T13:17:39.377Z,100997.47
2022-11-06T13:20:29.802Z,100998.97
2022-11-06T13:23:19.318Z,100999.31
2022-11-06T13:25:55.254Z,100989.78
2022-11-06T13:28:49.777Z,100990.94
2022-11-06T13:31:20.207Z,100994.41
2022-11-06T13:33:54.402Z,100988.22
2022-11-06T13:36:21.113Z,100987.00
2022-11-06T13:38:54.995Z,100990.50
2022-11-06T13:41:28.497Z,100982.06
2022-11-06T13:43:58.666Z,100983.75
2022-11-06T13:46:33.427Z,100986.56
2022-11-06T13:49:06.924Z,100987.38
2022-11-06T13:51:43.887Z,100979.38
2022-11-06T13:54:22.633Z,100974.19
2022-11-06T13:57:07.603Z,100975.50
2022-11-06T13:59:39.997Z,100976.16
2022-11-06T14:02:27.861Z,100978.63
2022-11-06T14:05:24.291Z,100980.44
2022-11-06T14:07:52.400Z,100986.38
2022-11-06T14:10:24.498Z,100980.44
2022-11-06T14:12:51.701Z,100973.44
2022-11-06T14:15:21.088Z,100978.94
2022-11-06T14:17:58.628Z,100983.34
2022-11-06T14:20:33.579Z,100970.69
2022-11-06T14:23:31.154Z,100969.41
2022-11-06T14:26:08.854Z,100965.88
2022-11-06T14:28:37.925Z,100968.75
2022-11-06T14:31:14.655Z,100970.16
2022-11-06T14:33:42.081Z,100964.53
2022-11-06T14:36:14.762Z,100967.63
2022-11-06T14:38:42.580Z,100968.31
2022-11-06T14:41:44.345Z,100965.44
2022-11-06T14:44:39.201Z,100967.56
2022-11-06T14:47:08.435Z,100971.44
2022-11-06T14:49:43.866Z,100972.75
2022-11-06T14:52:15.662Z,100970.66
2022-11-06T14:54:53.753Z,100967.97
2022-11-06T14:57:43.606Z,100963.44
2022-11-06T15:00:32.012Z,100969.25
2022-11-06T15:02:59.262Z,100979.34
2022-11-06T15:05:26.992Z,100978.06
2022-11-06T15:08:15.034Z,100986.47
2022-11-06T15:10:44.719Z,100987.75
2022-11-06T15:13:17.210Z,100982.34
2022-11-06T15:15:47.920Z,100988.81
2022-11-06T15:18:22.691Z,100994.50
2022-11-06T15:20:53.439Z,100989.97
2022-11-06T15:23:25.173Z,100996.16
2022-11-06T15:26:02.282Z,100993.06
2022-11-06T15:28:34.517Z,100987.25
2022-11-06T15:31:12.673Z,100986.97
2022-11-06T15:33:55.728Z,100982.75
2022-11-06T15:36:23.659Z,100981.81
2022-11-06T15:38:50.272Z,100979.22
2022-11-06T15:41:20.887Z,100984.16
2022-11-06T15:43:50.574Z,100988.28
2022-11-06T15:46:25.812Z,100979.25
2022-11-06T15:49:16.773Z,100983.91
2022-11-06T15:52:02.618Z,100983.41
2022-11-06T15:54:35.992Z,100978.75
2022-11-06T15:57:06.161Z,100982.88
2022-11-06T15:59:32.631Z,100968.94
2022-11-06T16:02:05.208Z,100972.03
2022-11-06T16:04:32.569Z,100969.56
2022-11-06T16:07:00.764Z,100966.09
2022-11-06T16:09:27.706Z,100963.88
2022-11-06T16:11:54.701Z,100968.50
2022-11-06T16:14:22.180Z,100967.38
2022-11-06T16:16:53.241Z,100969.56
2022-11-06T16:19:19.608Z,100969.16
2022-11-06T16:21:54.086Z,100972.09
2022-11-06T16:24:20.640Z,100971.44
2022-11-06T16:26:49.395Z,100976.06
2022-11-06T16:29:23.523Z,100975.03
2022-11-06T16:32:00.213Z,100979.34
2022-11-06T16:34:35.733Z,100980.38
2022-11-06T16:37:08.094Z,100984.63
2022-11-06T16:39:53.905Z,100980.06
2022-11-06T16:42:26.761Z,100976.47
2022-11-06T16:44:59.396Z,100978.78
2022-11-06T16:47:26.223Z,100978.63
2022-11-06T16:49:54.817Z,100982.00
2022-11-06T16:52:34.792Z,100991.22
2022-11-06T16:55:07.104Z,100990.25
2022-11-06T16:57:36.968Z,100995.16
2022-11-06T17:00:15.591Z,100998.47
2022-11-06T17:02:50.691Z,100999.53
2022-11-06T17:05:21.643Z,100999.25
2022-11-06T17:07:49.276Z,100999.34
2022-11-06T17:10:34.352Z,101006.97
2022-11-06T17:13:19.994Z,101007.69
2022-11-06T17:15:51.699Z,101010.78
2022-11-06T17:18:21.513Z,101004.41
2022-11-06T17:20:52.155Z,101009.31
2022-11-06T17:23:19.314Z,101016.59
2022-11-06T17:25:46.923Z,101013.63
2022-11-06T17:28:13.564Z,101012.19
2022-11-06T17:30:40.330Z,101016.19
2022-11-06T17:33:06.982Z,101019.66
2022-11-06T17:35:33.528Z,101028.13
2022-11-06T17:38:06.130Z,101022.75
2022-11-06T17:40:33.744Z,101030.19
2022-11-06T17:43:00.260Z,101031.72
2022-11-06T17:45:26.679Z,101032.03
2022-11-06T17:47:53.774Z,101031.78
2022-11-06T17:50:20.239Z,101032.38
2022-11-06T17:52:46.972Z,101028.31
2022-11-06T17:55:13.535Z,101028.03
2022-11-06T17:57:40.135Z,101028.72
2022-11-06T18:00:07.283Z,101028.44
2022-11-06T18:02:58.980Z,101030.41
2022-11-06T18:05:20.184Z,101032.06
2022-11-06T18:07:46.596Z,101034.53
2022-11-06T18:10:13.017Z,101029.41
2022-11-06T18:12:39.478Z,101032.75
2022-11-06T18:15:06.540Z,101036.66
2022-11-06T18:17:33.001Z,101038.78
2022-11-06T18:19:59.427Z,101036.34
2022-11-06T18:22:25.865Z,101038.78
2022-11-06T18:24:52.269Z,101034.53
2022-11-06T18:27:18.742Z,101044.72
2022-11-06T18:29:45.253Z,101044.47
2022-11-06T18:32:11.678Z,101047.47
2022-11-06T18:34:38.183Z,101043.38
2022-11-06T18:37:04.680Z,101048.09
2022-11-06T18:39:31.139Z,101042.19
2022-11-06T18:41:58.881Z,101040.66
2022-11-06T18:44:25.430Z,101037.03
2022-11-06T18:46:52.034Z,101047.66
2022-11-06T18:49:18.436Z,101038.28
2022-11-06T18:51:44.980Z,101040.41
2022-11-06T18:54:12.127Z,101040.84
2022-11-06T18:56:38.925Z,101048.56
2022-11-06T18:59:07.573Z,101056.44
2022-11-06T19:01:35.256Z,101056.16
2022-11-06T19:04:03.632Z,101059.16
2022-11-06T19:06:31.045Z,101056.91
2022-11-06T19:08:57.936Z,101063.69
2022-11-06T19:11:24.448Z,101067.91
2022-11-06T19:13:50.903Z,101080.28
2022-11-06T19:16:19.435Z,101078.34
2022-11-06T19:18:47.216Z,101086.38
2022-11-06T19:21:13.985Z,101074.25
2022-11-06T19:23:42.444Z,101069.59
2022-11-06T19:26:30.763Z,101071.41
2022-11-06T19:28:59.694Z,101071.84
2022-11-06T19:31:28.621Z,101069.75
2022-11-06T19:33:56.315Z,101070.47
2022-11-06T19:36:22.747Z,101076.69
2022-11-06T19:38:49.152Z,101074.13
2022-11-06T19:41:15.561Z,101076.53
2022-11-06T19:43:42.024Z,101078.66
2022-11-06T19:46:08.638Z,101070.03
2022-11-06T19:48:36.067Z,101072.59
2022-11-06T19:51:03.012Z,101073.19
2022-11-06T19:53:29.570Z,101070.03
2022-11-06T19:55:56.762Z,101087.53
2022-11-06T19:58:23.248Z,101089.31
2022-11-06T20:00:49.792Z,101085.56
2022-11-06T20:03:16.996Z,101082.06
2022-11-06T20:05:43.646Z,101085.94
2022-11-06T20:08:10.357Z,101092.00
2022-11-06T20:10:37.313Z,101085.38
2022-11-06T20:13:04.446Z,101091.09
2022-11-06T20:15:31.330Z,101091.50
2022-11-06T20:17:57.846Z,101099.19
2022-11-06T20:20:25.846Z,101098.72
2022-11-06T20:22:53.316Z,101092.84
2022-11-06T20:25:20.079Z,101092.50
2022-11-06T20:27:46.556Z,101100.28
2022-11-06T20:30:13.903Z,101091.16
2022-11-06T20:32:40.516Z,101083.06
2022-11-06T20:35:07.705Z,101090.31
2022-11-06T20:37:34.455Z,101100.34
2022-11-06T20:40:00.898Z,101092.06
2022-11-06T20:42:27.405Z,101095.06
2022-11-06T20:44:53.826Z,101099.06
2022-11-06T20:47:20.375Z,101094.84
2022-11-06T20:49:46.808Z,101104.53
2022-11-06T20:52:14.804Z,101107.59
2022-11-06T20:54:46.786Z,101109.06
2022-11-06T20:57:15.703Z,101108.69
2022-11-06T20:59:42.576Z,101107.44
2022-11-06T21:02:11.868Z,101108.63
2022-11-06T21:04:38.667Z,101106.66
2022-11-06T21:07:05.374Z,101115.31
2022-11-06T21:09:31.836Z,101117.75
2022-11-06T21:11:58.443Z,101112.88
2022-11-06T21:14:25.030Z,101113.56
2022-11-06T21:16:52.568Z,101109.69
2022-11-06T21:19:19.047Z,101123.25
2022-11-06T21:21:45.527Z,101130.28
2022-11-06T21:24:12.207Z,101126.66
2022-11-06T21:26:39.150Z,101118.06
2022-11-06T21:29:08.011Z,101121.88
2022-11-06T21:31:34.627Z,101119.28
2022-11-06T21:34:02.878Z,101127.56
2022-11-06T21:36:37.369Z,101122.28
2022-11-06T21:39:09.217Z,101120.78
2022-11-06T21:41:36.413Z,101125.16
2022-11-06T21:44:04.674Z,101124.28
2022-11-06T21:46:31.207Z,101127.22
2022-11-06T21:48:58.295Z,101137.00
2022-11-06T21:51:27.295Z,101136.22
2022-11-06T21:54:13.128Z,101130.13
2022-11-06T21:56:40.811Z,101141.69
2022-11-06T21:59:10.239Z,101133.69
2022-11-06T22:01:37.652Z,101129.72
2022-11-06T22:04:05.079Z,101125.50
2022-11-06T22:06:31.542Z,101128.25
2022-11-06T22:08:59.795Z,101135.06
2022-11-06T22:11:27.465Z,101135.47
2022-11-06T22:13:55.608Z,101133.28
2022-11-06T22:16:26.375Z,101145.19
2022-11-06T22:18:53.145Z,101146.28
2022-11-06T22:21:22.213Z,101143.84
2022-11-06T22:23:49.085Z,101155.66
2022-11-06T22:26:18.885Z,101154.00
2022-11-06T22:28:45.414Z,101157.91
2022-11-06T22:31:12.494Z,101159.00
2022-11-06T22:33:39.595Z,101165.50
2022-11-06T22:36:14.277Z,101159.00
2022-11-06T22:38:42.139Z,101161.28
2022-11-06T22:41:13.151Z,101166.69
2022-11-06T22:43:40.646Z,101162.69
2022-11-06T22:46:33.681Z,101158.06
2022-11-06T22:49:00.159Z,101160.13
2022-11-06T22:51:29.192Z,101157.56
2022-11-06T22:53:56.307Z,101155.75
2022-11-06T22:56:24.335Z,101159.16
2022-11-06T22:58:59.764Z,101157.94
2022-11-06T23:01:29.075Z,101154.38
2022-11-06T23:03:58.243Z,101161.72
2022-11-06T23:06:26.090Z,101152.63
2022-11-06T23:08:52.745Z,101152.13
2022-11-06T23:11:19.778Z,101161.16
2022-11-06T23:13:46.321Z,101155.94
2022-11-06T23:16:38.882Z,101161.16
2022-11-06T23:19:05.436Z,101162.16
2022-11-06T23:21:31.850Z,101168.91
2022-11-06T23:23:58.284Z,101171.06
2022-11-06T23:26:24.840Z,101163.75
2022-11-06T23:28:51.267Z,101167.50
2022-11-06T23:31:17.760Z,101169.38
2022-11-06T23:33:44.161Z,101168.47
2022-11-06T23:36:15.750Z,101165.59
2022-11-06T23:38:43.161Z,101157.34
2022-11-06T23:41:30.681Z,101163.03
2022-11-06T23:43:58.278Z,101165.31
2022-11-06T23:46:27.534Z,101152.03
2022-11-06T23:48:54.116Z,101154.88
2022-11-06T23:51:20.985Z,101156.84
2022-11-06T23:53:47.391Z,101160.41
2022-11-06T23:56:14.388Z,101164.44
2022-11-06T23:58:41.816Z,101158.72
